Time;durP1;ratioP1;P1;durP2;ratioP2;P2;SDS_P1;SDS_P2;PMS_P1;PMS_P2;Temp;Humidity;BMP_temperature;BMP_pressure;BME280_temperature;BME280_humidity;BME280_pressure;Samples;Min_cycle;Max_cycle;Signal;HPM_P1;HPM_P2
2022/07/02 00:01:43;;;;;;;;;;;;;;;15.47;65.62;102099.91;5064956;28;20305;-61
2022/07/02 00:04:11;;;;;;;;;;;;;;;15.44;65.80;102101.06;5065237;28;19974;-61
2022/07/02 00:06:37;;;;;;;;;;;;;;;15.42;66.16;102097.72;5065164;28;20011;-62
2022/07/02 00:09:02;;;;;;;;;;;;;;;15.40;65.37;102094.38;5064629;28;20024;-60
2022/07/02 00:11:27;;;;;;;;;;;;;;;15.38;65.86;102098.19;5065008;28;20454;-61
2022/07/02 00:13:53;;;;;;;;;;;;;;;15.36;65.86;102093.03;5064815;28;19920;-62
2022/07/02 00:16:18;;;;;;;;;;;;;;;15.35;65.50;102095.88;5064927;28;19920;-61
2022/07/02 00:18:44;;;;;;;;;;;;;;;15.33;65.60;102098.69;5064485;28;19986;-61
2022/07/02 00:21:10;;;;;;;;;;;;;;;15.31;65.57;102100.72;5064627;28;19963;-61
2022/07/02 00:23:35;;;;;;;;;;;;;;;15.29;65.97;102097.38;5064170;28;19928;-62
2022/07/02 00:26:03;;;;;;;;;;;;;;;15.27;65.68;102094.00;5065177;28;20405;-60
2022/07/02 00:28:28;;;;;;;;;;;;;;;15.23;66.11;102088.16;5064375;28;19928;-62
2022/07/02 00:30:54;;;;;;;;;;;;;;;15.20;65.73;102089.31;5065218;28;20271;-62
2022/07/02 00:33:19;;;;;;;;;;;;;;;15.18;66.36;102096.66;5064563;28;19920;-61
2022/07/02 00:35:45;;;;;;;;;;;;;;;15.15;66.31;102094.28;5046024;28;19979;-61
2022/07/02 00:38:11;;;;;;;;;;;;;;;15.12;66.03;102099.13;5064517;28;19920;-61
2022/07/02 00:40:37;;;;;;;;;;;;;;;15.08;66.24;102103.94;5064881;28;19920;-61
2022/07/02 00:43:02;;;;;;;;;;;;;;;15.05;66.30;102096.28;5046577;28;20360;-61
2022/07/02 00:45:28;;;;;;;;;;;;;;;15.01;66.13;102108.28;5064527;28;19920;-61
2022/07/02 00:47:54;;;;;;;;;;;;;;;14.99;66.64;102105.75;5064462;28;19952;-60
2022/07/02 00:50:20;;;;;;;;;;;;;;;14.97;66.30;102107.75;5064750;28;19924;-61
2022/07/02 00:52:45;;;;;;;;;;;;;;;14.94;66.81;102105.38;5064245;28;19990;-60
2022/07/02 00:55:10;;;;;;;;;;;;;;;14.92;66.67;102097.53;5063993;28;20382;-61
2022/07/02 00:57:35;;;;;;;;;;;;;;;14.89;66.51;102102.34;5063863;28;19930;-60
2022/07/02 01:00:00;;;;;;;;;;;;;;;14.87;66.60;102094.53;5063871;28;20018;-61
2022/07/02 01:02:26;;;;;;;;;;;;;;;14.86;66.59;102092.81;5064678;28;19916;-61
2022/07/02 01:04:52;;;;;;;;;;;;;;;14.85;66.19;102093.00;5046593;28;19920;-61
2022/07/02 01:07:19;;;;;;;;;;;;;;;14.85;66.83;102095.69;5065619;28;20011;-61
2022/07/02 01:12:29;;;;;;;;;;;;;;;14.80;66.44;102096.13;5068193;28;19958;-62
2022/07/02 01:14:55;;;;;;;;;;;;;;;14.78;66.86;102079.44;5068244;28;20363;-61
2022/07/02 01:17:21;;;;;;;;;;;;;;;14.75;66.77;102082.44;5067752;28;19920;-61
2022/07/02 01:19:46;;;;;;;;;;;;;;;14.73;66.85;102087.06;5067822;28;19920;-60
2022/07/02 01:22:24;;;;;;;;;;;;;;;14.72;67.11;102090.72;5068330;28;19931;-61
2022/07/02 01:24:50;;;;;;;;;;;;;;;14.69;67.22;102089.22;5067718;28;19923;-61
2022/07/02 01:27:16;;;;;;;;;;;;;;;14.66;67.58;102093.03;5067830;28;19921;-60
2022/07/02 01:29:42;;;;;;;;;;;;;;;14.64;67.53;102088.84;5067925;28;19920;-61
2022/07/02 01:32:08;;;;;;;;;;;;;;;14.62;67.15;102086.34;5067811;28;19927;-60
2022/07/02 01:34:52;;;;;;;;;;;;;;;14.60;67.31;102091.00;5067425;28;19960;-61
2022/07/02 01:37:18;;;;;;;;;;;;;;;14.58;67.22;102082.31;5068386;28;20282;-61
2022/07/02 01:39:44;;;;;;;;;;;;;;;14.57;67.09;102085.97;5067812;28;20377;-61
2022/07/02 01:42:10;;;;;;;;;;;;;;;14.56;67.37;102092.28;5067514;28;19956;-62
2022/07/02 01:44:36;;;;;;;;;;;;;;;14.53;67.32;102088.13;5067664;28;19925;-61
2022/07/02 01:47:02;;;;;;;;;;;;;;;14.52;67.96;102096.28;5068027;28;19942;-60
2022/07/02 01:49:27;;;;;;;;;;;;;;;14.49;67.29;102091.25;5067390;28;19974;-60
2022/07/02 01:51:52;;;;;;;;;;;;;;;14.46;67.63;102091.56;5067820;28;19924;-61
2022/07/02 01:54:17;;;;;;;;;;;;;;;14.45;67.94;102103.25;5067548;28;19920;-61
2022/07/02 01:56:43;;;;;;;;;;;;;;;14.43;68.07;102086.53;5067249;28;19955;-61
2022/07/02 01:59:08;;;;;;;;;;;;;;;14.41;67.57;102091.22;5066962;28;20010;-61
2022/07/02 02:01:33;;;;;;;;;;;;;;;14.38;67.71;102095.88;5065195;28;19990;-61
2022/07/02 02:03:59;;;;;;;;;;;;;;;14.36;67.85;102091.69;5064064;28;19926;-60
2022/07/02 02:06:24;;;;;;;;;;;;;;;14.33;68.18;102087.50;5066364;28;20027;-62
2022/07/02 02:08:51;;;;;;;;;;;;;;;14.32;67.94;102088.50;5049356;28;20329;-61
2022/07/02 02:11:16;;;;;;;;;;;;;;;14.29;68.05;102091.47;5067042;28;20424;-61
2022/07/02 02:13:42;;;;;;;;;;;;;;;14.27;68.63;102088.13;5066977;28;19924;-60
2022/07/02 02:16:07;;;;;;;;;;;;;;;14.27;68.35;102088.13;5067022;28;20015;-61
2022/07/02 02:18:32;;;;;;;;;;;;;;;14.26;68.50;102081.94;5067275;28;19920;-61
2022/07/02 02:20:57;;;;;;;;;;;;;;;14.26;68.07;102081.06;5066829;28;19920;-61
2022/07/02 02:23:22;;;;;;;;;;;;;;;14.22;68.85;102080.56;5066796;28;19970;-62
2022/07/02 02:25:47;;;;;;;;;;;;;;;14.23;68.13;102076.06;5067299;28;20369;-61
2022/07/02 02:28:13;;;;;;;;;;;;;;;14.21;68.30;102083.41;5066151;28;20425;-61
2022/07/02 02:30:38;;;;;;;;;;;;;;;14.20;68.42;102079.03;5067366;28;19921;-61
2022/07/02 02:33:03;;;;;;;;;;;;;;;14.22;68.43;102090.41;5066672;28;20449;-61
2022/07/02 02:35:28;;;;;;;;;;;;;;;14.20;68.77;102092.38;5066508;28;19924;-61
2022/07/02 02:37:53;;;;;;;;;;;;;;;14.22;68.85;102095.75;5066452;28;19925;-62
2022/07/02 02:40:19;;;;;;;;;;;;;;;14.24;68.59;102088.41;5048869;28;19920;-61
2022/07/02 02:42:44;;;;;;;;;;;;;;;14.26;68.15;102086.41;5066689;28;20291;-61
2022/07/02 02:45:09;;;;;;;;;;;;;;;14.26;68.51;102089.94;5066199;28;19940;-61
2022/07/02 02:47:34;;;;;;;;;;;;;;;14.29;68.75;102086.13;5066287;28;19924;-61
2022/07/02 02:50:00;;;;;;;;;;;;;;;14.31;68.68;102089.47;5066692;28;19920;-61
2022/07/02 02:52:25;;;;;;;;;;;;;;;14.33;68.71;102095.50;5066923;28;19971;-61
2022/07/02 02:54:50;;;;;;;;;;;;;;;14.33;68.33;102084.81;5066801;28;19955;-60
2022/07/02 02:57:15;;;;;;;;;;;;;;;14.34;68.10;102090.97;5034663;28;19920;-60
2022/07/02 02:59:40;;;;;;;;;;;;;;;14.35;68.21;102095.31;5065902;28;19921;-61
2022/07/02 03:02:07;;;;;;;;;;;;;;;14.34;68.17;102090.97;5065901;28;20003;-61
2022/07/02 03:04:32;;;;;;;;;;;;;;;14.34;68.54;102089.16;5066645;28;19931;-61
2022/07/02 03:06:59;;;;;;;;;;;;;;;14.36;68.17;102081.81;5065866;28;20007;-61
2022/07/02 03:09:24;;;;;;;;;;;;;;;14.35;68.35;102087.31;5066178;28;19928;-60
2022/07/02 03:11:49;;;;;;;;;;;;;;;14.34;68.07;102091.81;5066151;28;20306;-61
2022/07/02 03:14:14;;;;;;;;;;;;;;;14.32;68.07;102096.50;5066232;28;19925;-61
2022/07/02 03:16:39;;;;;;;;;;;;;;;14.30;67.87;102101.13;5065713;28;20200;-61
2022/07/02 03:19:04;;;;;;;;;;;;;;;14.29;68.10;102107.47;5065984;28;19920;-62
2022/07/02 03:21:30;;;;;;;;;;;;;;;14.29;68.00;102106.63;5065823;28;19926;-61
2022/07/02 03:23:55;;;;;;;;;;;;;;;14.28;67.75;102113.78;5065650;28;19920;-61
2022/07/02 03:26:20;;;;;;;;;;;;;;;14.27;68.09;102106.78;5065583;28;20006;-61
2022/07/02 03:28:45;;;;;;;;;;;;;;;14.26;68.29;102108.59;5065795;28;20367;-61
2022/07/02 03:31:10;;;;;;;;;;;;;;;14.27;68.34;102109.47;5064884;28;19920;-60
2022/07/02 03:33:36;;;;;;;;;;;;;;;14.26;68.39;102113.94;5066088;28;19920;-60
2022/07/02 03:36:01;;;;;;;;;;;;;;;14.25;68.42;102117.63;5065899;28;20356;-61
2022/07/02 03:38:27;;;;;;;;;;;;;;;14.26;68.32;102118.44;5065264;28;20448;-60
2022/07/02 03:40:52;;;;;;;;;;;;;;;14.26;68.50;102124.63;5047256;28;19917;-62
2022/07/02 03:43:17;;;;;;;;;;;;;;;14.25;68.47;102125.63;5064954;28;19920;-61
2022/07/02 03:45:42;;;;;;;;;;;;;;;14.25;68.22;102124.75;5065581;28;19920;-61
2022/07/02 03:48:07;;;;;;;;;;;;;;;14.25;68.27;102124.75;5046875;28;19920;-60
2022/07/02 03:50:33;;;;;;;;;;;;;;;14.24;68.57;102131.09;5065206;28;19999;-61
2022/07/02 03:52:58;;;;;;;;;;;;;;;14.25;68.65;102127.44;5064755;28;20294;-61
2022/07/02 03:55:23;;;;;;;;;;;;;;;14.26;68.41;102129.09;5065394;28;20560;-60
2022/07/02 03:57:49;;;;;;;;;;;;;;;14.23;68.45;102124.09;5064940;28;19921;-61
2022/07/02 04:00:14;;;;;;;;;;;;;;;14.24;68.47;102125.75;5060689;28;19928;-62
2022/07/02 04:02:39;;;;;;;;;;;;;;;14.23;68.90;102129.44;5061787;28;20426;-61
2022/07/02 04:05:05;;;;;;;;;;;;;;;14.25;68.53;102127.44;5064623;28;19920;-60
2022/07/02 04:07:30;;;;;;;;;;;;;;;14.26;68.58;102118.44;5064654;28;19958;-61
2022/07/02 04:09:56;;;;;;;;;;;;;;;14.26;68.59;102126.44;5046839;28;19920;-61
2022/07/02 04:12:21;;;;;;;;;;;;;;;14.26;68.35;102129.09;5064726;28;19944;-61
2022/07/02 04:14:46;;;;;;;;;;;;;;;14.28;68.67;102131.63;5064431;28;20285;-61
2022/07/02 04:17:11;;;;;;;;;;;;;;;14.24;68.58;102133.75;5064823;28;19920;-61
2022/07/02 04:19:37;;;;;;;;;;;;;;;14.23;68.58;102134.75;5064702;28;19921;-61
2022/07/02 04:22:02;;;;;;;;;;;;;;;14.21;68.42;102126.91;5064427;28;19931;-60
2022/07/02 04:24:29;;;;;;;;;;;;;;;14.21;68.47;102131.41;5064366;28;19921;-61
2022/07/02 04:26:54;;;;;;;;;;;;;;;14.20;68.49;102124.38;5064450;28;20402;-61
2022/07/02 04:29:19;;;;;;;;;;;;;;;14.20;68.84;102132.38;5064145;28;19927;-62
2022/07/02 04:31:44;;;;;;;;;;;;;;;14.20;68.83;102129.72;5064612;28;19920;-61
2022/07/02 04:34:09;;;;;;;;;;;;;;;14.21;68.78;102131.41;5064649;28;19921;-60
2022/07/02 04:36:36;;;;;;;;;;;;;;;14.21;69.01;102136.75;5049622;28;19924;-62
2022/07/02 04:39:02;;;;;;;;;;;;;;;14.25;69.01;102132.75;5064778;28;19916;-61
2022/07/02 04:41:28;;;;;;;;;;;;;;;14.30;68.99;102135.00;5063000;28;19920;-60
2022/07/02 04:43:54;;;;;;;;;;;;;;;14.32;68.41;102128.50;5063615;28;20429;-61
2022/07/02 04:46:19;;;;;;;;;;;;;;;14.34;68.24;102131.84;5063832;28;19921;-60
2022/07/02 04:48:44;;;;;;;;;;;;;;;14.34;68.50;102126.50;5063619;28;19987;-61
2022/07/02 04:51:09;;;;;;;;;;;;;;;14.36;68.25;102119.19;5064167;28;19921;-61
2022/07/02 04:53:35;;;;;;;;;;;;;;;14.41;68.33;102123.22;5063469;28;19924;-61
2022/07/02 04:56:00;;;;;;;;;;;;;;;14.43;68.39;102124.75;5064299;28;19920;-61
2022/07/02 04:58:25;;;;;;;;;;;;;;;14.49;68.13;102133.94;5063000;28;19973;-61
2022/07/02 05:00:51;;;;;;;;;;;;;;;14.52;68.58;102131.81;5061107;28;19921;-61
2022/07/02 05:03:16;;;;;;;;;;;;;;;14.56;68.34;102134.19;5063275;28;19920;-61
2022/07/02 05:05:41;;;;;;;;;;;;;;;14.59;68.02;102133.84;5044718;28;20379;-61
2022/07/02 05:08:06;;;;;;;;;;;;;;;14.62;67.91;102134.41;5063065;28;20023;-61
2022/07/02 05:10:32;;;;;;;;;;;;;;;14.65;68.12;102128.72;5063108;28;20053;-61
2022/07/02 05:12:57;;;;;;;;;;;;;;;14.68;68.07;102121.41;5063851;28;20042;-62
2022/07/02 05:15:23;;;;;;;;;;;;;;;14.68;68.18;102129.41;5064034;28;20431;-62
2022/07/02 05:17:48;;;;;;;;;;;;;;;14.71;67.86;102126.44;5063744;28;20741;-60
2022/07/02 05:20:14;;;;;;;;;;;;;;;14.74;68.17;102131.44;5063028;28;19924;-61
2022/07/02 05:22:39;;;;;;;;;;;;;;;14.77;68.04;102128.50;5063220;28;19920;-62
2022/07/02 05:25:04;;;;;;;;;;;;;;;14.79;68.29;102129.16;5065657;28;19924;-61
2022/07/02 05:27:29;;;;;;;;;;;;;;;14.80;68.10;102125.50;5065652;28;19952;-62
2022/07/02 05:29:55;;;;;;;;;;;;;;;14.81;68.31;102127.19;5063587;28;19921;-61
2022/07/02 05:32:20;;;;;;;;;;;;;;;14.83;67.97;102133.22;5063757;28;19920;-61
2022/07/02 05:34:45;;;;;;;;;;;;;;;14.86;67.83;102127.53;5063595;28;19928;-60
2022/07/02 05:37:10;;;;;;;;;;;;;;;14.93;67.43;102141.09;5063365;28;19952;-61
2022/07/02 05:39:35;;;;;;;;;;;;;;;14.99;67.21;102135.13;5063872;28;19939;-60
2022/07/02 05:42:00;;;;;;;;;;;;;;;15.03;67.33;102136.50;5064049;28;19920;-61
2022/07/02 05:44:26;;;;;;;;;;;;;;;15.08;67.15;102144.03;5063637;28;20277;-61
2022/07/02 05:46:51;;;;;;;;;;;;;;;15.14;67.19;102143.38;5064377;28;19939;-61
2022/07/02 05:49:16;;;;;;;;;;;;;;;15.19;67.35;102141.06;5063417;28;19920;-61
2022/07/02 05:51:41;;;;;;;;;;;;;;;15.29;67.31;102140.13;5063241;28;20423;-60
2022/07/02 05:54:06;;;;;;;;;;;;;;;15.36;66.88;102141.16;5066301;28;19916;-60
2022/07/02 05:56:32;;;;;;;;;;;;;;;15.44;66.65;102138.50;5067367;28;19920;-61
2022/07/02 05:58:57;;;;;;;;;;;;;;;15.51;66.01;102143.19;5067562;28;19920;-60
2022/07/02 06:01:22;;;;;;;;;;;;;;;15.57;66.15;102147.88;5067154;28;20031;-61
2022/07/02 06:03:47;;;;;;;;;;;;;;;15.65;66.14;102145.25;5067045;28;19920;-60
2022/07/02 06:08:56;;;;;;;;;;;;;;;15.86;65.76;102146.63;5067437;28;19973;-62
2022/07/02 06:11:21;;;;;;;;;;;;;;;15.97;64.64;102148.16;5067330;28;19924;-61
2022/07/02 06:13:47;;;;;;;;;;;;;;;16.03;65.23;102149.34;5067133;28;19920;-61
2022/07/02 06:16:12;;;;;;;;;;;;;;;16.13;65.04;102150.00;5067272;28;19921;-61
2022/07/02 06:18:37;;;;;;;;;;;;;;;16.26;64.60;102147.69;5066963;28;19920;-61
2022/07/02 06:21:02;;;;;;;;;;;;;;;16.36;64.02;102146.69;5067033;28;19920;-61
2022/07/02 06:23:28;;;;;;;;;;;;;;;16.43;63.82;102145.00;5067040;28;20007;-61
2022/07/02 06:25:53;;;;;;;;;;;;;;;16.60;63.18;102147.66;5067051;28;19970;-61
2022/07/02 06:28:18;;;;;;;;;;;;;;;16.67;63.09;102132.56;5066806;28;19931;-62
2022/07/02 06:30:44;;;;;;;;;;;;;;;16.80;63.37;102148.97;5038316;28;19999;-61
2022/07/02 06:33:09;;;;;;;;;;;;;;;17.02;60.78;102146.59;5063484;28;19920;-61
2022/07/02 06:35:34;;;;;;;;;;;;;;;16.93;62.35;102152.97;5066270;28;19924;-61
2022/07/02 06:37:59;;;;;;;;;;;;;;;16.96;60.56;102157.16;5066175;28;19931;-62
2022/07/02 06:40:25;;;;;;;;;;;;;;;16.83;61.50;102152.31;5066530;28;20789;-62
2022/07/02 06:42:50;;;;;;;;;;;;;;;16.78;61.58;102156.31;5066299;28;19927;-61
2022/07/02 06:45:15;;;;;;;;;;;;;;;16.78;62.10;102156.31;5066935;28;19940;-60
2022/07/02 06:47:41;;;;;;;;;;;;;;;16.85;61.84;102150.28;5066395;28;19994;-61
2022/07/02 06:50:06;;;;;;;;;;;;;;;16.93;60.21;102155.63;5066467;28;19920;-61
2022/07/02 06:52:32;;;;;;;;;;;;;;;17.01;60.84;102150.25;5066164;28;20349;-62
2022/07/02 06:54:57;;;;;;;;;;;;;;;17.23;58.69;102147.88;5066493;28;19932;-61
2022/07/02 06:57:23;;;;;;;;;;;;;;;17.25;59.53;102145.00;5066278;28;19945;-60
2022/07/02 06:59:48;;;;;;;;;;;;;;;17.31;59.96;102150.50;5063628;28;19931;-61
2022/07/02 07:02:13;;;;;;;;;;;;;;;17.37;59.74;102145.47;5066415;28;19921;-61
2022/07/02 07:04:38;;;;;;;;;;;;;;;17.33;59.94;102153.00;5064945;28;19920;-62
2022/07/02 07:07:05;;;;;;;;;;;;;;;17.38;59.03;102147.13;5066339;28;20376;-61
2022/07/02 07:09:31;;;;;;;;;;;;;;;17.47;59.16;102148.75;5066070;28;20294;-61
2022/07/02 07:11:57;;;;;;;;;;;;;;;17.57;59.51;102149.34;5066083;28;19920;-62
2022/07/02 07:14:22;;;;;;;;;;;;;;;17.66;58.61;102150.16;5066320;28;19925;-61
2022/07/02 07:16:47;;;;;;;;;;;;;;;17.73;58.73;102147.59;5066257;28;19924;-61
2022/07/02 07:19:13;;;;;;;;;;;;;;;17.79;57.88;102152.25;5066297;28;19935;-61
2022/07/02 07:21:40;;;;;;;;;;;;;;;17.86;57.48;102155.91;5047670;28;19916;-60
2022/07/02 07:24:05;;;;;;;;;;;;;;;17.93;57.36;102157.88;5065912;28;19929;-62
2022/07/02 07:26:31;;;;;;;;;;;;;;;18.01;57.57;102160.50;5065755;28;19920;-61
2022/07/02 07:28:56;;;;;;;;;;;;;;;18.11;57.45;102158.44;5065969;28;19944;-61
2022/07/02 07:31:22;;;;;;;;;;;;;;;18.20;57.23;102153.00;5066042;28;19969;-61
2022/07/02 07:33:47;;;;;;;;;;;;;;;18.27;57.11;102149.41;5065940;28;19931;-61
2022/07/02 07:36:13;;;;;;;;;;;;;;;18.34;57.14;102148.69;5065409;28;19920;-62
2022/07/02 07:38:39;;;;;;;;;;;;;;;18.44;57.41;102153.81;5065826;28;19920;-62
2022/07/02 07:41:04;;;;;;;;;;;;;;;18.52;56.86;102151.03;5065649;28;19997;-61
2022/07/02 07:43:29;;;;;;;;;;;;;;;18.58;56.57;102158.38;5047280;28;19993;-61
2022/07/02 07:45:54;;;;;;;;;;;;;;;18.63;56.39;102166.72;5065674;28;19924;-61
2022/07/02 07:48:19;;;;;;;;;;;;;;;18.71;56.28;102156.91;5065439;28;19928;-61
2022/07/02 07:50:44;;;;;;;;;;;;;;;18.83;55.35;102152.75;5065391;28;20448;-60
2022/07/02 07:53:10;;;;;;;;;;;;;;;18.83;56.00;102158.13;5063857;28;19941;-61
2022/07/02 07:55:35;;;;;;;;;;;;;;;18.91;56.19;102152.63;5064125;28;19924;-61
2022/07/02 07:58:01;;;;;;;;;;;;;;;19.03;55.65;102146.84;5064733;28;20005;-61
2022/07/02 08:00:26;;;;;;;;;;;;;;;19.05;54.66;102150.19;5063180;28;19928;-61
2022/07/02 08:02:52;;;;;;;;;;;;;;;18.95;52.50;102151.25;5065065;28;19920;-61
2022/07/02 08:05:17;;;;;;;;;;;;;;;18.94;54.19;102152.28;5065194;28;19990;-61
2022/07/02 08:07:42;;;;;;;;;;;;;;;19.01;54.33;102154.22;5065116;28;19932;-61
2022/07/02 08:10:08;;;;;;;;;;;;;;;19.12;53.79;102150.25;5046736;28;19920;-61
2022/07/02 08:12:34;;;;;;;;;;;;;;;19.15;53.08;102144.53;5064695;28;19985;-61
2022/07/02 08:14:59;;;;;;;;;;;;;;;19.23;54.02;102147.09;5065097;28;19989;-61
2022/07/02 08:17:25;;;;;;;;;;;;;;;19.34;53.89;102137.75;5064547;28;19931;-60
2022/07/02 08:19:50;;;;;;;;;;;;;;;19.43;51.94;102141.97;5064874;28;20383;-61
2022/07/02 08:22:16;;;;;;;;;;;;;;;19.49;53.45;102141.22;5064643;28;19927;-62
2022/07/02 08:24:41;;;;;;;;;;;;;;;19.59;54.19;102134.69;5064639;28;20055;-61
2022/07/02 08:27:06;;;;;;;;;;;;;;;19.70;53.91;102136.91;5064205;28;19921;-61
2022/07/02 08:29:31;;;;;;;;;;;;;;;19.83;51.41;102136.19;5064811;28;19931;-60
2022/07/02 08:31:56;;;;;;;;;;;;;;;19.84;52.28;102139.72;5064649;28;19932;-62
2022/07/02 08:34:21;;;;;;;;;;;;;;;19.89;51.49;102134.59;5064886;28;20029;-62
2022/07/02 08:36:47;;;;;;;;;;;;;;;19.85;52.00;102133.31;5064577;28;20073;-62
2022/07/02 08:39:12;;;;;;;;;;;;;;;19.98;50.23;102138.84;5064602;28;19920;-60
2022/07/02 08:41:40;;;;;;;;;;;;;;;19.89;51.25;102134.59;5064115;28;19920;-61
2022/07/02 08:44:05;;;;;;;;;;;;;;;19.96;51.89;102135.50;5064459;28;20007;-62
2022/07/02 08:46:31;;;;;;;;;;;;;;;20.03;51.82;102131.00;5064536;28;20011;-62
2022/07/02 08:48:58;;;;;;;;;;;;;;;20.13;52.22;102127.19;5046557;28;19921;-61
2022/07/02 08:51:25;;;;;;;;;;;;;;;20.21;50.12;102127.03;5064717;28;19974;-61
2022/07/02 08:53:50;;;;;;;;;;;;;;;20.32;50.49;102128.34;5064515;28;19920;-62
2022/07/02 08:56:16;;;;;;;;;;;;;;;20.29;51.14;102117.97;5064560;28;19939;-62
2022/07/02 08:58:41;;;;;;;;;;;;;;;20.32;51.00;102122.16;5064267;28;19940;-61
2022/07/02 09:01:08;;;;;;;;;;;;;;;20.41;50.72;102115.56;5064527;28;19920;-62
2022/07/02 09:03:33;;;;;;;;;;;;;;;20.41;50.91;102112.88;5064351;28;19927;-61
2022/07/02 09:05:59;;;;;;;;;;;;;;;20.50;51.94;102122.47;5064752;28;19921;-61
2022/07/02 09:08:24;;;;;;;;;;;;;;;20.63;49.87;102120.91;5064497;28;20011;-62
2022/07/02 09:10:51;;;;;;;;;;;;;;;20.71;51.16;102115.34;5063969;28;19924;-62
2022/07/02 09:13:17;;;;;;;;;;;;;;;21.03;47.35;102113.06;5064339;28;20368;-61
2022/07/02 09:15:43;;;;;;;;;;;;;;;20.79;49.67;102111.66;5064507;28;19920;-61
2022/07/02 09:18:08;;;;;;;;;;;;;;;20.87;48.86;102097.22;5063658;28;20278;-61
2022/07/02 09:20:33;;;;;;;;;;;;;;;20.86;49.87;102106.34;5046056;28;19924;-60
2022/07/02 09:22:59;;;;;;;;;;;;;;;20.93;50.39;102096.41;5063778;28;19927;-61
2022/07/02 09:25:26;;;;;;;;;;;;;;;21.09;49.42;102097.94;5045629;28;19924;-61
2022/07/02 09:27:59;;;;;;;;;;;;;;;21.12;49.76;102088.59;5064818;28;19998;-61
2022/07/02 09:30:24;;;;;;;;;;;;;;;21.18;49.36;102093.19;5067555;28;19988;-62
2022/07/02 09:33:28;;;;;;;;;;;;;;;21.23;50.05;102090.72;5067335;28;20386;-62
2022/07/02 09:35:35;;;;;;;;;;;;;;;21.35;49.73;102081.00;5067641;28;20914;-61
2022/07/02 09:38:07;;;;;;;;;;;;;;;21.40;48.86;102077.69;5067798;28;19921;-61
2022/07/02 09:40:32;;;;;;;;;;;;;;;21.47;49.29;102077.72;5067882;28;19927;-62
2022/07/02 09:42:57;;;;;;;;;;;;;;;21.53;49.35;102074.19;5068190;28;19921;-62
2022/07/02 09:45:22;;;;;;;;;;;;;;;21.61;49.40;102076.69;5067910;28;19920;-61
2022/07/02 09:47:50;;;;;;;;;;;;;;;21.78;46.01;102076.31;5067718;28;19978;-62
2022/07/02 09:50:17;;;;;;;;;;;;;;;21.67;48.00;102066.09;5067559;28;20386;-61
2022/07/02 09:52:49;;;;;;;;;;;;;;;21.69;48.16;102064.03;5067346;28;19924;-61
2022/07/02 09:55:33;;;;;;;;;;;;;;;21.89;46.31;102064.06;5067493;28;19960;-61
2022/07/02 09:57:59;;;;;;;;;;;;;;;21.78;46.82;102060.13;5067792;28;19935;-61
2022/07/02 10:00:26;;;;;;;;;;;;;;;21.89;47.87;102058.66;5067481;28;19947;-62
2022/07/02 10:02:52;;;;;;;;;;;;;;;22.08;45.08;102067.81;5067343;28;19920;-61
2022/07/02 10:05:21;;;;;;;;;;;;;;;21.93;46.44;102062.63;5067488;28;20366;-61
2022/07/02 10:07:47;;;;;;;;;;;;;;;21.97;47.44;102063.03;5067553;28;19930;-61
2022/07/02 10:10:12;;;;;;;;;;;;;;;22.01;47.13;102061.59;5067300;28;19917;-61
2022/07/02 10:12:37;;;;;;;;;;;;;;;21.94;46.08;102058.88;5067209;28;20038;-61
2022/07/02 10:15:04;;;;;;;;;;;;;;;21.91;46.55;102064.72;5067275;28;19971;-62
2022/07/02 10:17:32;;;;;;;;;;;;;;;22.02;46.42;102057.84;5067774;28;20027;-61
2022/07/02 10:19:58;;;;;;;;;;;;;;;22.11;46.29;102053.88;5066803;28;19921;-61
2022/07/02 10:22:23;;;;;;;;;;;;;;;22.13;46.42;102046.41;5049236;28;19970;-62
2022/07/02 10:24:49;;;;;;;;;;;;;;;22.28;45.33;102054.28;5048733;28;19920;-62
2022/07/02 10:27:16;;;;;;;;;;;;;;;22.22;46.71;102054.28;5066847;28;19925;-61
2022/07/02 10:29:42;;;;;;;;;;;;;;;22.12;46.46;102047.44;5066804;28;19920;-61
2022/07/02 10:32:10;;;;;;;;;;;;;;;22.08;45.79;102051.59;5066492;28;19928;-62
2022/07/02 10:34:42;;;;;;;;;;;;;;;21.90;45.81;102046.81;5066040;28;20382;-62
2022/07/02 10:37:07;;;;;;;;;;;;;;;21.99;44.80;102044.75;5066566;28;19917;-61
2022/07/02 10:39:39;;;;;;;;;;;;;;;22.02;45.21;102037.06;5066517;28;19943;-62
2022/07/02 10:42:04;;;;;;;;;;;;;;;22.22;46.04;102035.38;5067166;28;19924;-62
2022/07/02 10:44:40;;;;;;;;;;;;;;;22.39;45.90;102039.28;5066192;28;19920;-62
2022/07/02 10:47:05;;;;;;;;;;;;;;;22.48;45.93;102034.47;5067101;28;19960;-61
2022/07/02 10:49:31;;;;;;;;;;;;;;;22.38;44.37;102034.94;5066150;28;19944;-62
2022/07/02 10:51:59;;;;;;;;;;;;;;;22.31;45.26;102040.34;5066613;28;19920;-61
2022/07/02 10:54:31;;;;;;;;;;;;;;;22.42;45.86;102032.63;5066011;28;19924;-61
2022/07/02 10:56:57;;;;;;;;;;;;;;;22.65;43.50;102032.16;5065791;28;19920;-61
2022/07/02 10:59:27;;;;;;;;;;;;;;;22.79;43.85;102037.53;5065788;28;20389;-61
2022/07/02 11:02:05;;;;;;;;;;;;;;;22.95;44.06;102037.00;5066584;28;19946;-62
2022/07/02 11:04:31;;;;;;;;;;;;;;;22.97;42.61;102024.13;5066015;28;19920;-61
2022/07/02 11:07:03;;;;;;;;;;;;;;;22.91;44.10;102025.00;5065719;28;20366;-61
2022/07/02 11:09:29;;;;;;;;;;;;;;;22.90;43.46;102023.31;5065889;28;19927;-61
2022/07/02 11:11:58;;;;;;;;;;;;;;;22.93;43.61;102024.75;5065756;28;19925;-62
2022/07/02 11:14:26;;;;;;;;;;;;;;;23.09;43.61;102023.44;5065793;28;19952;-61
2022/07/02 11:16:52;;;;;;;;;;;;;;;23.24;41.54;102023.13;5065934;28;19924;-61
2022/07/02 11:19:18;;;;;;;;;;;;;;;23.15;41.65;102021.72;5047664;28;20616;-61
2022/07/02 11:21:44;;;;;;;;;;;;;;;23.19;42.66;102031.88;5064890;28;19925;-62
2022/07/02 11:24:10;;;;;;;;;;;;;;;23.40;41.53;102015.56;5065079;28;19924;-62
2022/07/02 11:26:39;;;;;;;;;;;;;;;23.61;38.21;102014.34;5064859;28;19931;-61
2022/07/02 11:29:05;;;;;;;;;;;;;;;23.78;40.19;102006.53;5066186;28;20015;-59
2022/07/02 11:31:31;;;;;;;;;;;;;;;24.02;38.30;102007.53;5065069;28;20027;-59
2022/07/02 11:33:57;;;;;;;;;;;;;;;24.02;39.37;102004.81;5065371;28;19925;-59
2022/07/02 11:36:23;;;;;;;;;;;;;;;24.05;40.54;102000.84;5046519;28;19924;-63
2022/07/02 11:38:49;;;;;;;;;;;;;;;24.13;38.16;101997.03;5064778;28;20319;-59
2022/07/02 11:41:34;;;;;;;;;;;;;;;24.21;38.32;101988.59;5064167;28;19928;-61
2022/07/02 11:43:59;;;;;;;;;;;;;;;24.38;37.67;101988.00;5064473;28;19931;-61
2022/07/02 11:46:26;;;;;;;;;;;;;;;24.29;38.91;101993.72;5066536;28;19924;-61
2022/07/02 11:48:51;;;;;;;;;;;;;;;24.34;39.51;101986.78;5065043;28;19921;-61
2022/07/02 11:51:19;;;;;;;;;;;;;;;24.19;40.10;101985.28;5064673;28;19920;-62
2022/07/02 11:53:54;;;;;;;;;;;;;;;24.02;39.62;101980.44;5065184;28;19934;-61
2022/07/02 11:56:19;;;;;;;;;;;;;;;23.78;39.43;101982.97;5051872;28;20306;-61
2022/07/02 11:58:46;;;;;;;;;;;;;;;23.64;40.29;101984.94;5062351;28;19936;-62
2022/07/02 12:01:21;;;;;;;;;;;;;;;23.81;40.31;101972.72;5065330;28;20450;-61
2022/07/02 12:03:47;;;;;;;;;;;;;;;24.02;39.06;101977.72;5064557;28;20412;-61
2022/07/02 12:06:12;;;;;;;;;;;;;;;23.95;39.40;101979.69;5064488;28;20026;-62
2022/07/02 12:08:39;;;;;;;;;;;;;;;23.98;39.77;101968.38;5064392;28;19927;-61
2022/07/02 12:11:14;;;;;;;;;;;;;;;24.09;40.22;101979.56;5064452;28;19931;-61
2022/07/02 12:13:39;;;;;;;;;;;;;;;24.28;39.81;101967.66;5064789;28;19921;-61
2022/07/02 12:16:05;;;;;;;;;;;;;;;24.33;40.01;101968.88;5064773;28;19931;-63
2022/07/02 12:18:30;;;;;;;;;;;;;;;24.24;39.92;101971.06;5064166;28;19920;-62
2022/07/02 12:21:06;;;;;;;;;;;;;;;24.10;38.96;101962.25;5064287;28;19925;-61
2022/07/02 12:23:40;;;;;;;;;;;;;;;23.76;39.82;101966.13;5064219;28;19964;-62
2022/07/02 12:26:05;;;;;;;;;;;;;;;23.66;40.10;101949.53;5064704;28;20451;-62
2022/07/02 12:31:14;;;;;;;;;;;;;;;23.73;40.57;101939.47;5064263;28;19970;-61
2022/07/02 12:33:40;;;;;;;;;;;;;;;23.92;40.55;101947.59;5063890;28;19921;-61
2022/07/02 12:36:05;;;;;;;;;;;;;;;23.98;40.13;101946.72;5063749;28;19920;-61
2022/07/02 12:38:44;;;;;;;;;;;;;;;23.93;40.42;101933.03;5064077;28;20375;-62